Time;durP1;ratioP1;P1;durP2;ratioP2;P2;SDS_P1;SDS_P2;PMS_P1;PMS_P2;Temp;Humidity;BMP_temperature;BMP_pressure;BME280_temperature;BME280_humidity;BME280_pressure;Samples;Min_cycle;Max_cycle;Signal;HPM_P1;HPM_P2
2022/01/22 00:02:30;;;;;;;;;4.00;4.00;;;;;4.63;49.39;98770.72;6188976;28;97906;-66
2022/01/22 00:05:34;;;;;;;;;5.00;4.00;;;;;4.65;49.56;98772.19;6189326;28;99664;-68
2022/01/22 00:08:38;;;;;;;;;5.00;5.00;;;;;4.66;49.56;98776.50;6189750;28;96362;-67
2022/01/22 00:11:51;;;;;;;;;5.80;5.80;;;;;4.65;49.77;98774.00;6198923;28;96644;-69
2022/01/22 00:14:54;;;;;;;;;4.20;4.20;;;;;4.62;49.77;98772.56;6196770;28;97031;-69
2022/01/22 00:17:59;;;;;;;;;5.60;4.60;;;;;4.75;49.85;98771.88;6222398;27;96424;-69
2022/01/22 00:21:03;;;;;;;;;6.00;4.00;;;;;4.78;49.40;98775.03;6205917;28;96593;-68
2022/01/22 00:24:09;;;;;;;;;4.75;4.00;;;;;4.76;49.61;98769.03;6200822;28;97415;-68
2022/01/22 00:27:13;;;;;;;;;4.00;3.00;;;;;4.68;49.32;98776.34;6207305;28;96735;-67
2022/01/22 00:30:20;;;;;;;;;3.40;3.00;;;;;4.67;49.18;98775.50;6190007;28;97465;-67
2022/01/22 00:33:24;;;;;;;;;4.00;2.60;;;;;4.69;49.04;98781.47;6194370;28;96599;-70
2022/01/22 00:36:28;;;;;;;;;3.00;3.00;;;;;4.71;48.70;98778.63;6212326;28;97531;-68
2022/01/22 00:39:31;;;;;;;;;2.00;2.00;;;;;4.64;48.72;98759.03;6213886;28;97909;-70
2022/01/22 00:42:35;;;;;;;;;2.00;2.00;;;;;4.61;49.23;98762.88;6212426;28;98189;-70
2022/01/22 00:45:38;;;;;;;;;2.00;2.00;;;;;4.61;49.06;98752.22;6212100;28;98532;-68
2022/01/22 00:48:43;;;;;;;;;3.00;2.00;;;;;4.58;48.94;98755.25;6211106;28;97636;-67
2022/01/22 00:51:47;;;;;;;;;2.00;2.00;;;;;4.61;48.59;98762.06;6214455;28;97510;-67
2022/01/22 00:54:50;;;;;;;;;1.80;1.80;;;;;4.62;48.53;98753.88;6196693;28;96308;-70
2022/01/22 00:57:53;;;;;;;;;2.40;2.40;;;;;4.43;48.52;98742.94;6201288;28;96518;-70
2022/01/22 01:00:57;;;;;;;;;2.00;2.00;;;;;4.40;48.43;98741.47;6214395;28;97971;-67
2022/01/22 01:04:03;;;;;;;;;1.00;1.00;;;;;4.26;48.54;98739.63;6204023;28;97003;-67
2022/01/22 01:07:06;;;;;;;;;2.00;2.00;;;;;4.33;48.59;98738.72;6222082;27;97209;-69
2022/01/22 01:10:13;;;;;;;;;3.00;2.00;;;;;4.33;48.05;98749.41;6185594;28;98030;-68
2022/01/22 01:13:18;;;;;;;;;2.40;2.00;;;;;4.28;48.04;98751.78;6221620;28;96792;-68
2022/01/22 01:16:43;;;;;;;;;3.00;3.00;;;;;4.21;48.24;98752.69;6211042;28;97959;-68
2022/01/22 01:33:11;;;;;;;;;3.00;2.50;;;;;4.12;46.77;98713.78;6211999;28;96934;-67
2022/01/22 01:36:16;;;;;;;;;4.00;2.00;;;;;4.19;46.92;98720.06;6213398;28;96962;-70
2022/01/22 01:39:24;;;;;;;;;3.00;2.00;;;;;4.20;46.54;98711.06;6193028;28;96598;-68
2022/01/22 01:42:35;;;;;;;;;2.00;1.80;;;;;4.16;46.63;98720.41;6188886;28;97464;-70
2022/01/22 01:45:38;;;;;;;;;2.00;2.00;;;;;4.08;47.05;98724.00;6209007;28;98037;-69
2022/01/22 01:48:43;;;;;;;;;2.00;1.75;;;;;4.13;46.94;98729.63;6201973;28;97439;-67
2022/01/22 01:51:47;;;;;;;;;2.00;2.00;;;;;4.15;46.83;98719.59;6203032;28;96611;-68
2022/01/22 01:55:02;;;;;;;;;1.50;1.50;;;;;3.83;47.05;98679.97;6186979;28;96736;-68
2022/01/22 01:58:04;;;;;;;;;1.25;1.00;;;;;4.03;47.51;98717.56;6219976;28;97064;-68
2022/01/22 02:01:13;;;;;;;;;2.00;2.00;;;;;3.95;47.92;98704.34;6193538;28;97490;-67
2022/01/22 02:04:17;;;;;;;;;1.00;1.00;;;;;3.95;47.81;98702.50;6188029;28;97669;-68
2022/01/22 02:07:22;;;;;;;;;2.00;2.00;;;;;4.00;47.89;98704.63;6223564;28;96463;-69
2022/01/22 02:10:42;;;;;;;;;1.00;1.00;;;;;4.01;47.91;98715.06;6208694;28;97293;-67
2022/01/22 02:14:02;;;;;;;;;2.00;1.00;;;;;4.08;48.27;98718.69;6224084;27;96899;-69
2022/01/22 02:24:05;;;;;;;;;1.60;1.60;;;;;4.10;48.20;98719.34;6210985;28;96615;-67
2022/01/22 02:27:09;;;;;;;;;2.00;2.00;;;;;4.11;47.96;98710.28;6210409;28;97935;-68
2022/01/22 02:30:19;;;;;;;;;1.00;1.00;;;;;4.13;48.12;98708.28;6211153;28;97315;-67
2022/01/22 02:33:49;;;;;;;;;4.00;3.40;;;;;4.05;48.32;98719.06;6243438;27;97822;-67
2022/01/22 02:37:00;;;;;;;;;1.00;1.00;;;;;3.82;48.48;98707.63;6211340;28;96857;-69
2022/01/22 02:40:10;;;;;;;;;2.00;1.80;;;;;4.00;48.65;98723.28;6211405;28;96473;-67
2022/01/22 02:43:14;;;;;;;;;2.00;1.40;;;;;3.96;48.89;98722.81;6207923;28;96588;-68
2022/01/22 02:46:19;;;;;;;;;3.50;3.50;;;;;3.91;48.46;98727.84;6186179;28;97518;-67
2022/01/22 02:49:22;;;;;;;;;2.00;2.00;;;;;3.79;48.96;98724.00;6217012;27;96637;-67
2022/01/22 02:52:26;;;;;;;;;3.00;2.00;;;;;3.77;48.54;98721.50;6192006;28;97282;-67
2022/01/22 02:55:31;;;;;;;;;2.00;2.00;;;;;3.82;48.82;98729.78;6194061;28;97400;-70
2022/01/22 02:58:36;;;;;;;;;3.00;2.00;;;;;3.83;48.79;98726.13;6205915;28;96567;-71
2022/01/22 03:01:40;;;;;;;;;2.00;2.00;;;;;3.80;48.97;98723.81;6189380;28;96825;-68
2022/01/22 03:04:44;;;;;;;;;3.00;3.00;;;;;3.83;48.66;98725.28;6226244;28;96400;-67
2022/01/22 03:07:51;;;;;;;;;3.00;3.00;;;;;3.76;48.94;98730.50;6215520;28;98573;-68
2022/01/22 03:10:56;;;;;;;;;3.00;2.50;;;;;3.73;49.06;98728.22;6191406;28;98048;-69
2022/01/22 03:17:33;;;;;;;;;4.00;3.00;;;;;3.74;49.21;98726.38;6218068;28;97452;-70
2022/01/22 03:20:59;;;;;;;;;4.00;4.00;;;;;3.76;48.80;98724.38;6213993;28;97910;-69
2022/01/22 03:27:25;;;;;;;;;4.00;4.00;;;;;3.71;49.07;98729.44;6214948;28;96495;-68
2022/01/22 03:30:28;;;;;;;;;4.00;4.00;;;;;3.64;49.23;98726.66;6196255;28;96788;-69
2022/01/22 03:33:32;;;;;;;;;5.00;4.00;;;;;3.67;49.01;98736.94;6214349;28;96774;-67
2022/01/22 03:36:35;;;;;;;;;4.00;4.00;;;;;3.70;48.90;98731.25;6214631;28;96362;-68
2022/01/22 03:39:42;;;;;;;;;5.80;5.80;;;;;3.64;49.47;98741.81;6196889;28;96829;-67
2022/01/22 03:42:46;;;;;;;;;3.40;3.00;;;;;3.64;49.36;98737.31;6205612;28;96268;-67
2022/01/22 03:45:50;;;;;;;;;5.00;5.00;;;;;3.64;48.96;98744.47;6228316;28;96446;-67
2022/01/22 03:48:53;;;;;;;;;7.00;7.00;;;;;3.64;48.99;98739.97;6213815;28;96591;-68
2022/01/22 03:51:57;;;;;;;;;6.25;5.00;;;;;3.62;48.73;98738.47;6198657;28;96836;-70
2022/01/22 03:55:00;;;;;;;;;8.00;7.00;;;;;3.43;49.16;98716.69;6214742;28;96486;-67
2022/01/22 03:58:24;;;;;;;;;8.00;8.00;;;;;3.34;49.33;98704.44;6214778;28;96799;-67
2022/01/22 04:02:28;;;;;;;;;6.50;6.00;;;;;3.49;49.45;98723.13;6213050;28;97391;-69
2022/01/22 04:05:36;;;;;;;;;7.60;7.00;;;;;3.57;49.63;98740.91;6221191;28;96793;-68
2022/01/22 04:08:39;;;;;;;;;10.00;8.50;;;;;3.53;49.62;98734.25;6170852;28;97802;-68
2022/01/22 04:11:45;;;;;;;;;12.00;9.00;;;;;3.56;49.46;98747.22;6187190;28;96615;-70
2022/01/22 04:14:56;;;;;;;;;12.25;10.25;;;;;3.60;49.66;98743.19;6178854;28;98155;-68
2022/01/22 04:24:52;;;;;;;;;15.00;13.00;;;;;3.43;49.94;98734.50;6210968;28;97108;-68
2022/01/22 04:27:56;;;;;;;;;11.80;10.80;;;;;3.39;49.77;98744.69;6212655;28;96908;-69
2022/01/22 04:31:01;;;;;;;;;14.25;12.25;;;;;3.36;50.00;98755.72;6213177;28;97478;-68
2022/01/22 04:34:04;;;;;;;;;14.60;13.00;;;;;3.30;50.33;98750.28;6201753;28;96561;-70
2022/01/22 04:37:08;;;;;;;;;12.75;11.75;;;;;3.23;50.03;98751.97;6212028;28;99468;-68
2022/01/22 04:40:12;;;;;;;;;14.40;14.00;;;;;3.19;50.53;98764.00;6206667;28;97513;-68
2022/01/22 04:43:16;;;;;;;;;18.40;16.60;;;;;3.08;50.70;98761.78;6204508;28;96490;-69
2022/01/22 04:46:24;;;;;;;;;16.00;14.00;;;;;2.93;51.34;98762.50;6203824;28;96717;-68
2022/01/22 04:56:12;;;;;;;;;17.00;14.40;;;;;2.98;50.71;98783.31;6212395;28;96672;-70
2022/01/22 04:59:15;;;;;;;;;16.00;15.00;;;;;2.95;50.80;98787.13;6199862;28;97469;-67
2022/01/22 05:02:20;;;;;;;;;15.00;14.80;;;;;2.97;50.78;98789.63;6200022;28;96954;-67
2022/01/22 05:05:40;;;;;;;;;15.00;14.50;;;;;2.96;50.71;98804.78;6213538;28;96462;-68
2022/01/22 05:09:02;;;;;;;;;20.40;17.40;;;;;2.88;50.69;98814.66;6211080;28;98679;-68
2022/01/22 05:12:22;;;;;;;;;15.00;14.20;;;;;3.07;50.64;98834.69;6198970;28;96897;-69
2022/01/22 05:15:26;;;;;;;;;17.00;15.00;;;;;3.14;50.90;98841.78;6216576;28;96766;-69
2022/01/22 05:18:36;;;;;;;;;15.40;14.40;;;;;3.19;50.43;98852.75;6245628;27;97395;-68
2022/01/22 05:21:41;;;;;;;;;13.00;12.00;;;;;3.25;50.55;98856.53;6212392;28;97394;-67
2022/01/22 05:24:49;;;;;;;;;12.00;11.00;;;;;3.40;49.99;98849.47;6211121;28;96958;-71
2022/01/22 05:28:07;;;;;;;;;16.00;13.00;;;;;3.38;50.28;98849.63;6211233;28;97416;-70
2022/01/22 05:31:52;;;;;;;;;14.20;13.20;;;;;3.40;49.98;98842.28;6206756;28;97583;-68
2022/01/22 05:38:46;;;;;;;;;12.40;10.00;;;;;3.44;49.40;98842.75;6183946;28;97753;-69
2022/01/22 05:41:49;;;;;;;;;11.80;10.00;;;;;3.49;49.03;98846.56;6195733;28;98479;-68
2022/01/22 05:44:52;;;;;;;;;11.40;11.00;;;;;3.56;49.23;98849.34;6210878;28;97524;-69
2022/01/22 05:47:57;;;;;;;;;15.40;12.00;;;;;3.63;48.63;98857.44;6211052;28;96861;-69
2022/01/22 05:51:05;;;;;;;;;15.00;13.00;;;;;3.70;48.47;98855.75;6206232;28;97543;-69
2022/01/22 05:54:34;;;;;;;;;12.00;12.00;;;;;3.69;48.14;98856.72;6235945;27;98141;-70
2022/01/22 06:01:15;;;;;;;;;12.40;12.00;;;;;3.74;47.79;98857.03;6232334;27;96711;-70
2022/01/22 06:04:36;;;;;;;;;16.00;13.00;;;;;3.66;47.63;98857.09;6208489;28;97539;-67
2022/01/22 06:07:44;;;;;;;;;12.00;11.00;;;;;3.72;47.15;98875.88;6188428;28;97130;-68
2022/01/22 06:10:53;;;;;;;;;11.40;10.40;;;;;3.66;47.40;98876.59;6207421;28;97407;-69
2022/01/22 06:13:57;;;;;;;;;12.40;11.40;;;;;3.58;47.03;98875.81;6190610;28;99820;-71
2022/01/22 06:17:16;;;;;;;;;14.00;13.00;;;;;3.52;47.17;98888.00;6224506;28;97495;-70
2022/01/22 06:20:23;;;;;;;;;10.00;9.00;;;;;3.39;47.39;98890.44;6189755;28;97485;-68
2022/01/22 06:23:28;;;;;;;;;10.25;10.25;;;;;3.31;47.42;98893.16;6242489;27;97367;-69
2022/01/22 06:26:32;;;;;;;;;12.00;11.60;;;;;3.22;48.13;98896.88;6189930;28;98077;-67
2022/01/22 06:29:35;;;;;;;;;10.80;10.00;;;;;3.10;48.21;98906.25;6227913;27;97684;-70
2022/01/22 06:32:40;;;;;;;;;13.50;13.00;;;;;3.04;48.52;98911.25;6218939;28;97321;-68
2022/01/22 06:35:44;;;;;;;;;13.60;12.60;;;;;2.93;48.51;98922.28;6196033;28;96878;-68
2022/01/22 06:38:55;;;;;;;;;11.40;11.40;;;;;3.06;48.76;98919.06;6204938;28;97157;-69
2022/01/22 06:42:16;;;;;;;;;13.60;12.60;;;;;3.02;48.70;98917.78;6208256;28;97711;-70
2022/01/22 06:45:22;;;;;;;;;13.00;12.00;;;;;3.04;48.60;98921.06;6200201;28;97985;-67
2022/01/22 06:48:34;;;;;;;;;13.60;11.60;;;;;3.06;48.76;98911.09;6226047;28;97682;-70
2022/01/22 06:51:55;;;;;;;;;13.00;12.00;;;;;3.14;48.59;98920.88;6246286;27;97092;-70
2022/01/22 06:54:59;;;;;;;;;12.00;10.60;;;;;3.04;48.84;98907.75;6189257;28;98329;-69
2022/01/22 06:58:03;;;;;;;;;13.00;13.00;;;;;3.25;48.86;98923.16;6190850;28;97207;-68
2022/01/22 07:01:07;;;;;;;;;15.40;13.40;;;;;3.20;48.65;98926.34;6223931;28;96623;-70
2022/01/22 07:04:36;;;;;;;;;18.00;14.40;;;;;3.33;48.77;98926.59;6219395;28;96946;-68
2022/01/22 07:08:17;;;;;;;;;12.00;11.40;;;;;3.42;48.73;98925.53;6197333;28;96657;-68
2022/01/22 07:11:27;;;;;;;;;14.00;13.00;;;;;3.47;48.87;98920.50;6212733;28;98066;-70
2022/01/22 07:14:30;;;;;;;;;12.75;11.00;;;;;3.47;48.43;98933.84;6201306;28;98132;-67
2022/01/22 07:17:36;;;;;;;;;13.00;11.60;;;;;3.56;48.33;98937.31;6195780;28;97710;-67
2022/01/22 07:20:51;;;;;;;;;12.80;10.80;;;;;3.61;48.70;98940.28;6216286;28;96769;-67
2022/01/22 07:27:33;;;;;;;;;11.00;11.00;;;;;3.83;48.58;98938.63;6147019;28;97870;-70
2022/01/22 07:30:36;;;;;;;;;10.80;10.00;;;;;3.99;48.05;98943.84;6146399;28;97155;-67
2022/01/22 07:33:41;;;;;;;;;12.60;12.00;;;;;3.97;48.08;98939.69;6162637;28;96940;-68
2022/01/22 07:36:45;;;;;;;;;11.25;10.25;;;;;4.06;47.79;98952.78;6163588;28;97385;-69
2022/01/22 07:39:48;;;;;;;;;12.25;10.50;;;;;4.06;48.07;98952.78;6171355;28;97542;-70
2022/01/22 07:43:11;;;;;;;;;11.00;11.00;;;;;4.07;48.02;98953.59;6150673;28;97478;-69
2022/01/22 07:46:33;;;;;;;;;9.00;9.00;;;;;4.05;48.01;98945.81;6159041;28;96608;-69
2022/01/22 07:49:57;;;;;;;;;9.00;9.00;;;;;4.23;47.76;98964.16;6151805;28;97122;-69
2022/01/22 07:53:02;;;;;;;;;11.00;10.50;;;;;4.27;47.45;98971.63;6136713;28;96808;-67
2022/01/22 07:56:05;;;;;;;;;12.00;10.40;;;;;4.32;47.35;98977.25;6122897;28;99467;-69
2022/01/22 07:59:10;;;;;;;;;12.00;11.00;;;;;4.43;47.32;98977.84;6142337;28;96694;-69
2022/01/22 08:02:18;;;;;;;;;11.00;10.40;;;;;4.60;47.11;98988.19;6203589;28;97928;-70
2022/01/22 08:06:01;;;;;;;;;14.00;12.40;;;;;4.60;47.16;98998.84;6162486;28;97548;-69
2022/01/22 08:09:23;;;;;;;;;12.00;11.00;;;;;4.61;47.34;99010.38;6167101;28;97243;-71
2022/01/22 08:12:37;;;;;;;;;16.40;13.00;;;;;4.66;47.18;99011.50;6213352;28;96495;-69
2022/01/22 08:15:44;;;;;;;;;13.60;13.00;;;;;4.86;46.84;99016.31;6195441;28;96727;-69
2022/01/22 08:18:48;;;;;;;;;12.00;10.33;;;;;4.96;46.60;99030.25;6213231;28;96945;-68
2022/01/22 08:21:51;;;;;;;;;14.75;13.75;;;;;5.04;46.31;99028.31;6213042;28;96559;-70
2022/01/22 08:25:14;;;;;;;;;12.40;10.40;;;;;5.03;46.35;99028.50;6211758;28;96535;-69
2022/01/22 08:31:51;;;;;;;;;13.00;13.00;;;;;5.20;46.39;99033.50;6200798;28;97135;-69
2022/01/22 08:38:15;;;;;;;;;16.00;14.00;;;;;5.28;45.96;99040.56;6195607;28;97766;-67
2022/01/22 08:41:19;;;;;;;;;15.00;13.80;;;;;5.34;46.03;99055.06;6212392;28;96282;-68
2022/01/22 08:44:23;;;;;;;;;13.00;12.00;;;;;5.37;46.03;99057.38;6212725;28;97456;-68
2022/01/22 08:47:28;;;;;;;;;14.00;14.00;;;;;5.44;45.63;99045.75;6207588;28;96762;-71
2022/01/22 08:50:33;;;;;;;;;15.40;14.00;;;;;5.45;45.27;99050.09;6208384;28;99671;-67
2022/01/22 08:53:37;;;;;;;;;13.50;13.00;;;;;5.52;45.82;99060.88;6209180;28;97406;-67
2022/01/22 08:56:41;;;;;;;;;15.40;15.40;;;;;5.56;45.39;99063.00;6208012;28;97449;-68
2022/01/22 08:59:44;;;;;;;;;15.20;13.20;;;;;5.35;45.17;99046.84;6214085;28;97465;-72
2022/01/22 09:02:50;;;;;;;;;17.00;15.40;;;;;5.41;45.33;99045.28;6196456;28;96787;-69
2022/01/22 09:06:15;;;;;;;;;14.00;12.80;;;;;5.42;45.50;99041.63;6213122;28;96662;-68
2022/01/22 09:09:23;;;;;;;;;15.60;14.60;;;;;5.36;45.31;99042.34;6192573;28;97766;-68
2022/01/22 09:12:29;;;;;;;;;16.00;15.00;;;;;5.38;45.58;99042.97;6202881;28;97432;-70
2022/01/22 09:15:50;;;;;;;;;17.75;16.00;;;;;5.44;45.92;99047.59;6199211;28;96374;-69
2022/01/22 09:18:55;;;;;;;;;20.00;18.80;;;;;5.42;45.99;99060.34;6193631;28;98475;-70
2022/01/22 09:21:58;;;;;;;;;17.40;16.60;;;;;5.51;45.90;99072.59;6195021;28;98445;-71
2022/01/22 09:25:01;;;;;;;;;14.80;13.00;;;;;5.45;45.55;99065.28;6208702;28;97650;-69
2022/01/22 09:28:07;;;;;;;;;21.50;19.50;;;;;5.30;45.74;99048.41;6237939;27;96800;-69
2022/01/22 09:31:12;;;;;;;;;17.75;17.00;;;;;5.42;45.48;99071.84;6210758;28;97765;-69
2022/01/22 09:34:17;;;;;;;;;19.00;17.50;;;;;5.37;45.71;99068.06;6211015;28;97402;-70
2022/01/22 09:37:38;;;;;;;;;19.00;18.00;;;;;5.34;45.81;99058.56;6208827;28;97774;-69
2022/01/22 09:41:01;;;;;;;;;19.50;16.50;;;;;5.40;45.53;99063.19;6211026;28;97550;-71
2022/01/22 09:44:23;;;;;;;;;24.00;20.00;;;;;5.48;45.32;99073.78;6194694;28;97991;-71
2022/01/22 09:47:52;;;;;;;;;17.00;15.20;;;;;5.46;45.24;99074.97;6210274;28;96842;-69
2022/01/22 09:51:08;;;;;;;;;22.80;19.80;;;;;5.31;45.50;99079.50;6211429;28;96460;-71
2022/01/22 09:54:31;;;;;;;;;20.60;18.20;;;;;5.35;45.95;99086.13;6211574;28;98933;-71
2022/01/22 09:57:44;;;;;;;;;22.75;18.50;;;;;5.37;45.51;99084.13;6194026;28;99540;-70
2022/01/22 10:01:24;;;;;;;;;21.80;19.80;;;;;5.47;45.76;99090.81;6199930;28;97426;-70
2022/01/22 10:04:36;;;;;;;;;19.00;18.00;;;;;5.55;45.80;99103.28;6202487;28;97449;-70
2022/01/22 10:08:27;;;;;;;;;24.00;20.00;;;;;5.47;45.66;99100.72;6201629;28;98487;-68
2022/01/22 10:12:07;;;;;;;;;21.40;20.00;;;;;5.67;45.83;99104.47;6199135;28;97439;-70
2022/01/22 10:15:42;;;;;;;;;23.40;20.40;;;;;5.63;45.96;99095.16;6173045;28;96862;-69
2022/01/22 10:19:08;;;;;;;;;17.40;17.40;;;;;5.38;45.85;99096.44;6193381;28;97761;-68
2022/01/22 10:22:13;;;;;;;;;22.20;21.80;;;;;5.31;45.94;99093.69;6221219;28;97453;-69
2022/01/22 10:25:23;;;;;;;;;22.00;19.40;;;;;5.26;46.25;99097.91;6205700;27;97334;-68
2022/01/22 10:28:27;;;;;;;;;21.00;18.25;;;;;5.38;46.31;99107.13;6198858;28;96528;-69
2022/01/22 10:31:42;;;;;;;;;25.00;22.00;;;;;5.28;46.42;99104.72;6210518;28;97433;-70
2022/01/22 10:35:06;;;;;;;;;28.75;26.75;;;;;5.36;46.50;99110.00;6210684;28;97416;-67
2022/01/22 10:38:41;;;;;;;;;22.40;20.80;;;;;5.31;46.44;99100.88;6169334;28;98325;-69
2022/01/22 10:41:46;;;;;;;;;24.00;21.00;;;;;5.39;46.40;99112.31;6211799;28;97193;-68
2022/01/22 10:44:51;;;;;;;;;26.60;24.00;;;;;5.38;46.38;99121.34;6184487;28;96992;-69
2022/01/22 10:48:17;;;;;;;;;22.00;20.60;;;;;5.56;46.29;99116.47;6185741;28;96522;-67
2022/01/22 10:51:21;;;;;;;;;23.20;20.80;;;;;5.60;45.75;99115.09;6187037;28;97422;-68
2022/01/22 10:54:25;;;;;;;;;25.60;22.00;;;;;5.57;45.83;99118.13;6186270;28;97468;-68
2022/01/22 10:57:30;;;;;;;;;22.20;18.80;;;;;5.65;45.99;99114.53;6188726;28;97354;-68
2022/01/22 11:00:34;;;;;;;;;16.33;14.00;;;;;5.51;45.11;99097.50;6197511;28;98131;-67
2022/01/22 11:03:37;;;;;;;;;13.00;12.00;;;;;5.55;45.04;99138.06;6193632;28;97757;-70
2022/01/22 11:06:46;;;;;;;;;13.40;9.40;;;;;5.58;44.75;99135.00;6226590;28;96516;-67
2022/01/22 11:09:50;;;;;;;;;10.00;8.00;;;;;5.62;44.47;99125.59;6191571;28;99528;-67
2022/01/22 11:12:55;;;;;;;;;10.00;9.60;;;;;5.59;44.56;99137.50;6208627;28;97207;-68
2022/01/22 11:15:59;;;;;;;;;10.00;7.60;;;;;5.85;43.92;99137.06;6212491;28;96743;-69
2022/01/22 11:19:04;;;;;;;;;8.40;8.40;;;;;5.91;43.66;99136.31;6213881;28;97754;-69
2022/01/22 11:22:09;;;;;;;;;12.00;11.00;;;;;6.01;43.42;99136.84;6210099;28;97375;-69
2022/01/22 11:25:13;;;;;;;;;9.40;9.00;;;;;6.12;43.39;99146.25;6210396;28;98437;-70
2022/01/22 11:28:19;;;;;;;;;10.40;8.60;;;;;6.28;43.02;99151.41;6213952;28;96640;-70
2022/01/22 11:31:26;;;;;;;;;9.00;8.00;;;;;6.23;42.39;99155.66;6209557;28;97209;-70
2022/01/22 11:34:32;;;;;;;;;9.60;9.00;;;;;6.16;42.49;99158.25;6211271;28;96581;-68
2022/01/22 11:37:44;;;;;;;;;9.80;8.80;;;;;6.37;42.85;99170.88;6209357;28;96667;-67
2022/01/22 11:41:03;;;;;;;;;9.40;8.40;;;;;6.33;42.20;99183.81;6212682;28;97210;-71
2022/01/22 11:44:10;;;;;;;;;8.80;8.00;;;;;6.36;41.66;99180.75;6211199;28;96862;-67
2022/01/22 11:47:16;;;;;;;;;10.60;9.60;;;;;6.42;41.86;99190.72;6211217;28;97462;-68
2022/01/22 11:50:23;;;;;;;;;10.75;9.75;;;;;6.44;42.17;99201.25;6210782;28;97771;-70
2022/01/22 11:53:30;;;;;;;;;9.40;8.60;;;;;6.44;41.56;99194.06;6214919;28;96932;-67
2022/01/22 11:56:47;;;;;;;;;9.40;8.00;;;;;6.37;41.71;99193.13;6213512;28;97609;-70
2022/01/22 12:00:16;;;;;;;;;10.40;9.40;;;;;6.26;42.21;99196.28;6212628;28;97626;-70
2022/01/22 12:03:23;;;;;;;;;8.50;8.00;;;;;6.25;42.40;99197.31;6203312;28;96450;-70
2022/01/22 12:07:12;;;;;;;;;9.00;8.00;;;;;6.19;42.55;99203.41;6214419;28;97509;-66
2022/01/22 12:10:20;;;;;;;;;12.00;11.00;;;;;6.17;43.38;99196.56;6191476;28;99574;-69
2022/01/22 12:16:51;;;;;;;;;10.00;9.00;;;;;6.16;43.43;99214.47;6206711;28;97326;-64
2022/01/22 12:20:07;;;;;;;;;11.80;10.00;;;;;6.19;43.27;99230.19;6212337;28;96656;-64
2022/01/22 12:23:11;;;;;;;;;9.75;9.00;;;;;6.31;43.16;99222.50;6215002;28;98789;-68
2022/01/22 12:26:14;;;;;;;;;10.00;10.00;;;;;6.38;42.93;99232.28;6214154;28;97394;-67
2022/01/22 12:29:38;;;;;;;;;10.80;9.80;;;;;6.18;43.48;99238.38;6210154;28;96664;-65
2022/01/22 12:32:46;;;;;;;;;11.00;9.80;;;;;6.25;43.47;99248.19;6209937;28;98088;-67
2022/01/22 12:35:57;;;;;;;;;10.40;10.00;;;;;6.23;43.40;99252.06;6208830;28;98086;-69
2022/01/22 12:39:07;;;;;;;;;11.60;11.00;;;;;6.30;43.51;99261.03;6210633;28;97475;-64
2022/01/22 12:42:12;;;;;;;;;12.00;11.00;;;;;6.30;43.24;99264.53;6212860;28;96818;-65
2022/01/22 12:45:15;;;;;;;;;12.40;10.40;;;;;6.31;43.68;99260.81;6208907;28;97552;-67
2022/01/22 12:48:21;;;;;;;;;10.60;8.60;;;;;6.25;43.63;99269.59;6208921;28;96998;-70
2022/01/22 12:51:26;;;;;;;;;10.00;9.00;;;;;6.23;43.21;99268.94;6210389;28;97414;-68
2022/01/22 12:54:31;;;;;;;;;10.00;10.00;;;;;6.22;43.35;99274.47;6208062;28;96667;-65
2022/01/22 12:57:42;;;;;;;;;10.00;9.00;;;;;6.27;43.28;99272.09;6212441;28;97798;-65
2022/01/22 13:00:46;;;;;;;;;12.75;11.75;;;;;6.29;43.24;99281.59;6203256;27;97222;-68
2022/01/22 13:03:52;;;;;;;;;12.00;11.00;;;;;6.27;43.15;99285.47;6212685;28;98090;-68
2022/01/22 13:06:55;;;;;;;;;12.00;9.50;;;;;6.26;43.25;99292.66;6213552;28;96424;-65
2022/01/22 13:10:07;;;;;;;;;13.40;10.80;;;;;6.23;43.19;99293.03;6209267;28;98398;-68
2022/01/22 13:13:14;;;;;;;;;9.60;9.20;;;;;6.06;43.40;99297.72;6211908;28;97079;-68
2022/01/22 13:16:17;;;;;;;;;11.00;9.40;;;;;6.09;43.81;99297.38;6209319;28;96971;-68
2022/01/22 13:19:23;;;;;;;;;12.00;11.00;;;;;6.18;43.58;99302.63;6201215;28;96717;-67
2022/01/22 13:22:34;;;;;;;;;11.00;10.00;;;;;6.09;43.58;99307.25;6221238;28;97596;-68
2022/01/22 13:25:39;;;;;;;;;11.00;10.00;;;;;6.05;43.38;99325.53;6223972;28;96865;-65
2022/01/22 13:28:43;;;;;;;;;13.75;11.75;;;;;6.00;43.42;99324.41;6207152;28;97473;-68
2022/01/22 13:32:23;;;;;;;;;10.20;8.20;;;;;6.06;43.19;99337.03;6207795;28;97443;-67
2022/01/22 13:35:43;;;;;;;;;11.00;10.60;;;;;5.95;43.69;99340.19;6107196;28;96703;-66
2022/01/22 13:49:09;;;;;;;;;12.00;8.00;;;;;5.90;43.88;99356.78;6110008;28;97445;-68
2022/01/22 13:52:16;;;;;;;;;13.00;12.00;;;;;5.90;43.80;99361.28;6077713;28;99671;-66
2022/01/22 13:55:20;;;;;;;;;12.00;11.20;;;;;5.82;43.62;99374.69;6099070;28;97664;-65
2022/01/22 13:58:23;;;;;;;;;14.00;13.00;;;;;5.95;43.72;99372.28;6082073;28;96900;-64
2022/01/22 14:01:39;;;;;;;;;11.60;10.00;;;;;5.98;43.47;99379.94;6098602;28;97701;-68
2022/01/22 14:04:49;;;;;;;;;11.80;9.80;;;;;5.99;43.38;99384.28;6085931;28;97735;-67
2022/01/22 14:08:00;;;;;;;;;10.50;9.50;;;;;5.90;43.22;99393.41;6076055;28;97598;-65
2022/01/22 14:11:05;;;;;;;;;13.00;11.00;;;;;6.07;43.01;99393.09;6205044;28;97350;-65
2022/01/22 14:14:08;;;;;;;;;10.00;9.60;;;;;6.14;42.73;99397.72;6193481;28;99550;-69
2022/01/22 14:17:14;;;;;;;;;13.40;12.80;;;;;6.21;42.79;99396.81;6196705;28;96681;-68
2022/01/22 14:20:17;;;;;;;;;12.40;11.00;;;;;6.21;42.68;99410.19;6207650;28;97359;-65
2022/01/22 14:23:32;;;;;;;;;13.00;11.50;;;;;6.25;42.35;99413.34;6209016;28;98462;-68
2022/01/22 14:26:39;;;;;;;;;11.00;9.80;;;;;6.30;42.48;99422.50;6211849;28;96736;-67
2022/01/22 14:29:44;;;;;;;;;10.40;9.00;;;;;6.21;42.49;99426.25;6203212;28;97578;-64
2022/01/22 14:32:56;;;;;;;;;12.40;10.00;;;;;6.02;42.56;99427.59;6207551;28;97368;-65
2022/01/22 14:36:02;;;;;;;;;13.50;13.50;;;;;5.88;42.97;99424.84;6198468;28;97782;-66
2022/01/22 14:39:15;;;;;;;;;11.00;11.00;;;;;5.82;43.58;99430.88;6229510;27;97108;-66
2022/01/22 14:45:56;;;;;;;;;13.00;11.20;;;;;5.96;43.71;99448.91;6213127;28;98145;-65
2022/01/22 14:48:59;;;;;;;;;12.00;10.00;;;;;5.94;43.57;99456.25;6193177;28;96990;-68
2022/01/22 14:52:04;;;;;;;;;13.20;11.80;;;;;5.85;43.74;99452.78;6200908;28;96804;-65
2022/01/22 14:55:09;;;;;;;;;14.00;12.00;;;;;5.71;43.94;99461.56;6207228;28;97939;-65
2022/01/22 14:58:13;;;;;;;;;15.75;13.75;;;;;5.68;44.08;99462.75;6209061;28;96513;-69
2022/01/22 15:01:17;;;;;;;;;12.00;11.00;;;;;5.64;44.39;99466.78;6202044;28;99897;-69
2022/01/22 15:04:20;;;;;;;;;14.00;13.40;;;;;5.64;44.39;99472.13;6214092;28;97251;-69
2022/01/22 15:07:31;;;;;;;;;15.00;13.00;;;;;5.64;44.62;99484.69;6213115;28;97776;-69
2022/01/22 15:10:35;;;;;;;;;14.67;13.00;;;;;5.72;44.60;99481.94;6212202;28;97344;-67
2022/01/22 15:13:39;;;;;;;;;13.60;12.60;;;;;5.80;44.61;99483.75;6192062;28;96495;-68
2022/01/22 15:16:48;;;;;;;;;15.60;13.40;;;;;5.70;44.01;99473.28;6210761;28;98010;-65
2022/01/22 15:19:52;;;;;;;;;14.20;13.60;;;;;5.80;44.40;99497.97;6209835;28;97382;-69
2022/01/22 15:22:59;;;;;;;;;15.60;12.60;;;;;5.79;44.29;99503.50;6207642;28;97540;-69
2022/01/22 15:26:05;;;;;;;;;15.00;13.00;;;;;5.51;44.30;99468.38;6207874;28;96564;-69
2022/01/22 15:29:11;;;;;;;;;14.00;13.00;;;;;5.64;44.83;99519.44;6203367;28;96392;-68
2022/01/22 15:32:31;;;;;;;;;15.20;14.60;;;;;5.70;44.63;99525.94;6208191;28;97375;-69
2022/01/22 15:35:34;;;;;;;;;18.20;15.80;;;;;5.69;44.77;99533.13;6204421;28;98097;-67
2022/01/22 15:38:38;;;;;;;;;22.00;19.00;;;;;5.72;44.87;99534.66;6211091;28;98333;-65
2022/01/22 15:41:42;;;;;;;;;22.40;19.40;;;;;5.76;44.87;99538.63;6208618;28;96767;-65
2022/01/22 15:44:46;;;;;;;;;17.00;16.00;;;;;5.72;44.89;99540.78;6203866;28;97301;-65
2022/01/22 15:47:49;;;;;;;;;20.60;17.00;;;;;5.75;45.02;99551.16;6208139;28;98039;-68
2022/01/22 15:50:52;;;;;;;;;18.60;15.60;;;;;5.70;44.78;99545.50;6202373;28;96652;-67
2022/01/22 15:53:57;;;;;;;;;22.80;18.00;;;;;5.67;44.73;99557.38;6207512;28;97260;-65
2022/01/22 15:57:04;;;;;;;;;17.60;16.60;;;;;5.59;44.82;99565.44;6208037;28;98550;-68
2022/01/22 16:00:10;;;;;;;;;21.00;18.00;;;;;5.49;45.17;99572.84;6208599;28;97505;-65
2022/01/22 16:03:20;;;;;;;;;17.80;14.40;;;;;5.54;45.41;99580.34;6207803;28;97317;-65
2022/01/22 16:06:34;;;;;;;;;20.60;18.00;;;;;5.48;45.20;99587.22;6209526;28;98652;-69